sensor_id;sensor_type;location;lat;lon;timestamp;P1;durP1;ratioP1;P2;durP2;ratioP2
12435;SDS011;6282;51.440;6.938;2023-06-22T00:01:16;5.28;;;3.30;;
12435;SDS011;6282;51.440;6.938;2023-06-22T00:03:43;3.83;;;2.72;;
12435;SDS011;6282;51.440;6.938;2023-06-22T00:06:10;3.05;;;2.67;;
12435;SDS011;6282;51.440;6.938;2023-06-22T00:08:37;3.22;;;2.83;;
12435;SDS011;6282;51.440;6.938;2023-06-22T00:11:04;3.50;;;3.20;;
12435;SDS011;6282;51.440;6.938;2023-06-22T00:13:32;5.70;;;3.20;;
12435;SDS011;6282;51.440;6.938;2023-06-22T00:15:59;2.70;;;2.50;;
12435;SDS011;6282;51.440;6.938;2023-06-22T00:18:27;3.88;;;3.42;;
12435;SDS011;6282;51.440;6.938;2023-06-22T00:20:55;5.78;;;2.60;;
12435;SDS011;6282;51.440;6.938;2023-06-22T00:23:24;4.00;;;3.13;;
12435;SDS011;6282;51.440;6.938;2023-06-22T00:25:51;3.47;;;2.88;;
12435;SDS011;6282;51.440;6.938;2023-06-22T00:28:18;4.07;;;3.17;;
12435;SDS011;6282;51.440;6.938;2023-06-22T00:30:46;4.43;;;3.20;;
12435;SDS011;6282;51.440;6.938;2023-06-22T00:33:14;3.63;;;2.83;;
12435;SDS011;6282;51.440;6.938;2023-06-22T00:35:41;4.28;;;3.25;;
12435;SDS011;6282;51.440;6.938;2023-06-22T00:38:08;3.63;;;3.15;;
12435;SDS011;6282;51.440;6.938;2023-06-22T00:40:35;3.85;;;3.50;;
12435;SDS011;6282;51.440;6.938;2023-06-22T00:43:03;4.53;;;3.22;;
12435;SDS011;6282;51.440;6.938;2023-06-22T00:45:31;5.63;;;3.35;;
12435;SDS011;6282;51.440;6.938;2023-06-22T00:47:59;5.10;;;3.72;;
12435;SDS011;6282;51.440;6.938;2023-06-22T00:50:27;5.13;;;3.28;;
12435;SDS011;6282;51.440;6.938;2023-06-22T00:52:59;3.47;;;2.97;;
12435;SDS011;6282;51.440;6.938;2023-06-22T00:55:27;5.05;;;3.38;;
12435;SDS011;6282;51.440;6.938;2023-06-22T00:57:55;4.13;;;3.15;;
12435;SDS011;6282;51.440;6.938;2023-06-22T01:00:23;4.70;;;3.67;;
12435;SDS011;6282;51.440;6.938;2023-06-22T01:02:51;3.38;;;2.95;;
12435;SDS011;6282;51.440;6.938;2023-06-22T01:05:20;4.60;;;3.47;;
12435;SDS011;6282;51.440;6.938;2023-06-22T01:07:52;4.95;;;3.42;;
12435;SDS011;6282;51.440;6.938;2023-06-22T01:10:29;3.75;;;3.40;;
12435;SDS011;6282;51.440;6.938;2023-06-22T01:13:02;4.40;;;3.30;;
12435;SDS011;6282;51.440;6.938;2023-06-22T01:15:35;5.30;;;2.85;;
12435;SDS011;6282;51.440;6.938;2023-06-22T01:18:06;6.95;;;3.13;;
12435;SDS011;6282;51.440;6.938;2023-06-22T01:20:37;2.70;;;2.50;;
12435;SDS011;6282;51.440;6.938;2023-06-22T01:23:09;3.53;;;3.22;;
12435;SDS011;6282;51.440;6.938;2023-06-22T01:25:45;3.60;;;3.10;;
12435;SDS011;6282;51.440;6.938;2023-06-22T01:28:20;4.35;;;3.50;;
12435;SDS011;6282;51.440;6.938;2023-06-22T01:30:54;4.90;;;3.30;;
12435;SDS011;6282;51.440;6.938;2023-06-22T01:33:30;3.70;;;3.30;;
12435;SDS011;6282;51.440;6.938;2023-06-22T01:36:00;3.33;;;3.03;;
12435;SDS011;6282;51.440;6.938;2023-06-22T01:38:28;4.38;;;3.10;;
12435;SDS011;6282;51.440;6.938;2023-06-22T01:40:56;3.65;;;3.15;;
12435;SDS011;6282;51.440;6.938;2023-06-22T01:43:25;2.75;;;2.55;;
12435;SDS011;6282;51.440;6.938;2023-06-22T01:45:55;3.15;;;2.88;;
12435;SDS011;6282;51.440;6.938;2023-06-22T01:48:22;5.00;;;2.90;;
12435;SDS011;6282;51.440;6.938;2023-06-22T01:50:51;4.13;;;3.47;;
12435;SDS011;6282;51.440;6.938;2023-06-22T01:53:18;4.35;;;3.10;;
12435;SDS011;6282;51.440;6.938;2023-06-22T01:55:46;5.72;;;3.42;;
12435;SDS011;6282;51.440;6.938;2023-06-22T01:58:13;5.07;;;3.05;;
12435;SDS011;6282;51.440;6.938;2023-06-22T02:04:06;4.25;;;3.38;;
12435;SDS011;6282;51.440;6.938;2023-06-22T02:06:37;3.92;;;2.72;;
12435;SDS011;6282;51.440;6.938;2023-06-22T02:09:08;3.03;;;2.50;;
12435;SDS011;6282;51.440;6.938;2023-06-22T02:11:38;3.50;;;3.20;;
12435;SDS011;6282;51.440;6.938;2023-06-22T02:14:08;5.13;;;2.92;;
12435;SDS011;6282;51.440;6.938;2023-06-22T02:16:36;4.00;;;2.92;;
12435;SDS011;6282;51.440;6.938;2023-06-22T02:19:04;3.95;;;2.90;;
12435;SDS011;6282;51.440;6.938;2023-06-22T02:21:31;5.35;;;3.20;;
12435;SDS011;6282;51.440;6.938;2023-06-22T02:23:58;3.70;;;2.78;;
12435;SDS011;6282;51.440;6.938;2023-06-22T02:26:25;4.00;;;3.55;;
12435;SDS011;6282;51.440;6.938;2023-06-22T02:28:54;4.90;;;4.40;;
12435;SDS011;6282;51.440;6.938;2023-06-22T02:31:21;6.95;;;4.88;;
12435;SDS011;6282;51.440;6.938;2023-06-22T02:33:55;3.97;;;3.58;;
12435;SDS011;6282;51.440;6.938;2023-06-22T02:36:25;5.55;;;3.97;;
12435;SDS011;6282;51.440;6.938;2023-06-22T02:38:52;4.38;;;3.55;;
12435;SDS011;6282;51.440;6.938;2023-06-22T02:41:21;6.07;;;4.28;;
12435;SDS011;6282;51.440;6.938;2023-06-22T02:43:48;5.00;;;3.95;;
12435;SDS011;6282;51.440;6.938;2023-06-22T02:46:15;4.75;;;4.30;;
12435;SDS011;6282;51.440;6.938;2023-06-22T02:48:42;5.68;;;5.18;;
12435;SDS011;6282;51.440;6.938;2023-06-22T02:51:09;7.20;;;5.57;;
12435;SDS011;6282;51.440;6.938;2023-06-22T02:53:37;7.28;;;5.82;;
12435;SDS011;6282;51.440;6.938;2023-06-22T02:56:04;5.82;;;5.32;;
12435;SDS011;6282;51.440;6.938;2023-06-22T02:58:32;8.52;;;5.57;;
12435;SDS011;6282;51.440;6.938;2023-06-22T03:01:03;6.65;;;5.32;;
12435;SDS011;6282;51.440;6.938;2023-06-22T03:03:30;7.57;;;5.53;;
12435;SDS011;6282;51.440;6.938;2023-06-22T03:05:57;7.68;;;4.82;;
12435;SDS011;6282;51.440;6.938;2023-06-22T03:08:26;5.55;;;4.95;;
12435;SDS011;6282;51.440;6.938;2023-06-22T03:10:54;6.15;;;5.53;;
12435;SDS011;6282;51.440;6.938;2023-06-22T03:13:21;6.25;;;4.88;;
12435;SDS011;6282;51.440;6.938;2023-06-22T03:15:48;6.57;;;4.43;;
12435;SDS011;6282;51.440;6.938;2023-06-22T03:18:15;5.88;;;4.63;;
12435;SDS011;6282;51.440;6.938;2023-06-22T03:20:41;5.28;;;4.68;;
12435;SDS011;6282;51.440;6.938;2023-06-22T03:23:08;6.32;;;4.75;;
12435;SDS011;6282;51.440;6.938;2023-06-22T03:25:35;4.20;;;3.80;;
12435;SDS011;6282;51.440;6.938;2023-06-22T03:28:03;6.53;;;4.65;;
12435;SDS011;6282;51.440;6.938;2023-06-22T03:30:30;5.63;;;4.65;;
12435;SDS011;6282;51.440;6.938;2023-06-22T03:32:57;5.20;;;4.68;;
12435;SDS011;6282;51.440;6.938;2023-06-22T03:35:28;4.88;;;4.38;;
12435;SDS011;6282;51.440;6.938;2023-06-22T03:37:54;7.65;;;5.10;;
12435;SDS011;6282;51.440;6.938;2023-06-22T03:40:21;6.55;;;5.07;;
12435;SDS011;6282;51.440;6.938;2023-06-22T03:42:48;5.78;;;4.53;;
12435;SDS011;6282;51.440;6.938;2023-06-22T03:45:17;4.80;;;4.30;;
12435;SDS011;6282;51.440;6.938;2023-06-22T03:47:44;6.57;;;5.63;;
12435;SDS011;6282;51.440;6.938;2023-06-22T03:50:11;7.50;;;6.50;;
12435;SDS011;6282;51.440;6.938;2023-06-22T03:52:38;5.10;;;4.60;;
12435;SDS011;6282;51.440;6.938;2023-06-22T03:55:06;6.47;;;5.88;;
12435;SDS011;6282;51.440;6.938;2023-06-22T03:57:33;7.25;;;6.10;;
12435;SDS011;6282;51.440;6.938;2023-06-22T04:00:00;7.28;;;6.00;;
12435;SDS011;6282;51.440;6.938;2023-06-22T04:02:32;7.25;;;6.20;;
12435;SDS011;6282;51.440;6.938;2023-06-22T04:04:58;6.88;;;6.18;;
12435;SDS011;6282;51.440;6.938;2023-06-22T04:07:25;8.52;;;6.55;;
12435;SDS011;6282;51.440;6.938;2023-06-22T04:09:52;6.90;;;5.68;;
12435;SDS011;6282;51.440;6.938;2023-06-22T04:12:19;7.45;;;5.70;;
12435;SDS011;6282;51.440;6.938;2023-06-22T04:14:46;8.25;;;6.35;;
12435;SDS011;6282;51.440;6.938;2023-06-22T04:17:12;7.47;;;5.88;;
12435;SDS011;6282;51.440;6.938;2023-06-22T04:19:42;8.07;;;6.78;;
12435;SDS011;6282;51.440;6.938;2023-06-22T04:22:09;8.57;;;6.38;;
12435;SDS011;6282;51.440;6.938;2023-06-22T04:24:37;8.20;;;6.43;;
12435;SDS011;6282;51.440;6.938;2023-06-22T04:27:04;10.15;;;6.93;;
12435;SDS011;6282;51.440;6.938;2023-06-22T04:29:31;8.55;;;6.88;;
12435;SDS011;6282;51.440;6.938;2023-06-22T04:31:58;7.90;;;6.88;;
12435;SDS011;6282;51.440;6.938;2023-06-22T04:34:29;9.65;;;7.15;;
12435;SDS011;6282;51.440;6.938;2023-06-22T04:36:57;10.55;;;7.28;;
12435;SDS011;6282;51.440;6.938;2023-06-22T04:39:24;8.80;;;6.70;;
12435;SDS011;6282;51.440;6.938;2023-06-22T04:41:52;12.25;;;7.57;;
12435;SDS011;6282;51.440;6.938;2023-06-22T04:44:21;9.82;;;7.20;;
12435;SDS011;6282;51.440;6.938;2023-06-22T04:46:50;7.85;;;6.28;;
12435;SDS011;6282;51.440;6.938;2023-06-22T04:49:19;11.18;;;7.13;;
12435;SDS011;6282;51.440;6.938;2023-06-22T04:51:47;8.00;;;6.60;;
12435;SDS011;6282;51.440;6.938;2023-06-22T04:54:18;8.88;;;6.68;;
12435;SDS011;6282;51.440;6.938;2023-06-22T04:56:45;9.18;;;6.75;;
12435;SDS011;6282;51.440;6.938;2023-06-22T04:59:11;8.85;;;6.68;;
12435;SDS011;6282;51.440;6.938;2023-06-22T05:01:39;9.95;;;7.50;;
12435;SDS011;6282;51.440;6.938;2023-06-22T05:04:05;11.05;;;7.13;;
12435;SDS011;6282;51.440;6.938;2023-06-22T05:06:32;8.90;;;7.25;;
12435;SDS011;6282;51.440;6.938;2023-06-22T05:08:59;11.13;;;6.78;;
12435;SDS011;6282;51.440;6.938;2023-06-22T05:11:29;10.93;;;7.50;;
12435;SDS011;6282;51.440;6.938;2023-06-22T05:13:56;8.05;;;7.25;;
12435;SDS011;6282;51.440;6.938;2023-06-22T05:16:23;8.50;;;6.63;;
12435;SDS011;6282;51.440;6.938;2023-06-22T05:18:51;8.05;;;6.65;;
12435;SDS011;6282;51.440;6.938;2023-06-22T05:21:19;9.00;;;7.03;;
12435;SDS011;6282;51.440;6.938;2023-06-22T05:23:48;10.13;;;7.40;;
12435;SDS011;6282;51.440;6.938;2023-06-22T05:26:15;7.82;;;7.03;;
12435;SDS011;6282;51.440;6.938;2023-06-22T05:28:43;9.90;;;7.00;;
12435;SDS011;6282;51.440;6.938;2023-06-22T05:31:11;8.52;;;6.28;;
12435;SDS011;6282;51.440;6.938;2023-06-22T05:33:38;9.57;;;7.25;;
12435;SDS011;6282;51.440;6.938;2023-06-22T05:36:05;8.32;;;6.85;;
12435;SDS011;6282;51.440;6.938;2023-06-22T05:41:53;9.60;;;7.43;;
12435;SDS011;6282;51.440;6.938;2023-06-22T05:44:22;11.50;;;6.95;;
12435;SDS011;6282;51.440;6.938;2023-06-22T05:46:49;8.38;;;6.93;;
12435;SDS011;6282;51.440;6.938;2023-06-22T05:49:16;9.30;;;7.15;;
12435;SDS011;6282;51.440;6.938;2023-06-22T05:51:43;9.95;;;7.32;;
12435;SDS011;6282;51.440;6.938;2023-06-22T05:54:10;7.63;;;6.70;;
12435;SDS011;6282;51.440;6.938;2023-06-22T05:56:38;9.27;;;7.35;;
12435;SDS011;6282;51.440;6.938;2023-06-22T05:59:05;10.88;;;8.60;;
12435;SDS011;6282;51.440;6.938;2023-06-22T06:01:33;11.05;;;7.53;;
12435;SDS011;6282;51.440;6.938;2023-06-22T06:04:01;9.50;;;8.50;;
12435;SDS011;6282;51.440;6.938;2023-06-22T06:06:29;11.65;;;8.77;;
12435;SDS011;6282;51.440;6.938;2023-06-22T06:08:55;10.10;;;8.73;;
12435;SDS011;6282;51.440;6.938;2023-06-22T06:11:23;9.73;;;8.23;;
12435;SDS011;6282;51.440;6.938;2023-06-22T06:13:51;12.50;;;9.60;;
12435;SDS011;6282;51.440;6.938;2023-06-22T06:16:17;13.65;;;9.65;;
12435;SDS011;6282;51.440;6.938;2023-06-22T06:18:45;13.48;;;10.52;;
12435;SDS011;6282;51.440;6.938;2023-06-22T06:21:13;14.50;;;10.25;;
12435;SDS011;6282;51.440;6.938;2023-06-22T06:23:40;13.70;;;9.60;;
12435;SDS011;6282;51.440;6.938;2023-06-22T06:26:07;10.93;;;9.27;;
12435;SDS011;6282;51.440;6.938;2023-06-22T06:28:34;15.73;;;10.18;;
12435;SDS011;6282;51.440;6.938;2023-06-22T06:31:01;15.20;;;10.27;;
12435;SDS011;6282;51.440;6.938;2023-06-22T06:33:32;12.75;;;9.88;;
12435;SDS011;6282;51.440;6.938;2023-06-22T06:36:00;13.10;;;10.20;;
12435;SDS011;6282;51.440;6.938;2023-06-22T06:38:28;10.90;;;9.75;;
12435;SDS011;6282;51.440;6.938;2023-06-22T06:40:55;9.43;;;8.32;;
12435;SDS011;6282;51.440;6.938;2023-06-22T06:43:22;10.85;;;9.05;;
12435;SDS011;6282;51.440;6.938;2023-06-22T06:45:49;10.75;;;9.23;;
12435;SDS011;6282;51.440;6.938;2023-06-22T06:48:16;11.35;;;9.52;;
12435;SDS011;6282;51.440;6.938;2023-06-22T06:50:43;10.43;;;8.95;;
12435;SDS011;6282;51.440;6.938;2023-06-22T06:53:12;12.77;;;9.60;;
12435;SDS011;6282;51.440;6.938;2023-06-22T06:55:38;11.55;;;8.85;;
12435;SDS011;6282;51.440;6.938;2023-06-22T06:58:05;13.00;;;9.60;;
12435;SDS011;6282;51.440;6.938;2023-06-22T07:00:34;11.43;;;9.15;;
12435;SDS011;6282;51.440;6.938;2023-06-22T07:03:02;11.77;;;9.95;;
12435;SDS011;6282;51.440;6.938;2023-06-22T07:05:29;11.90;;;8.50;;
12435;SDS011;6282;51.440;6.938;2023-06-22T07:07:55;9.35;;;8.43;;
12435;SDS011;6282;51.440;6.938;2023-06-22T07:10:24;11.68;;;10.10;;
12435;SDS011;6282;51.440;6.938;2023-06-22T07:12:50;10.50;;;8.52;;
12435;SDS011;6282;51.440;6.938;2023-06-22T07:15:17;11.07;;;8.95;;
12435;SDS011;6282;51.440;6.938;2023-06-22T07:17:44;12.35;;;9.55;;
12435;SDS011;6282;51.440;6.938;2023-06-22T07:20:11;9.65;;;8.65;;
12435;SDS011;6282;51.440;6.938;2023-06-22T07:22:38;13.60;;;9.23;;
12435;SDS011;6282;51.440;6.938;2023-06-22T07:25:06;10.95;;;9.30;;
12435;SDS011;6282;51.440;6.938;2023-06-22T07:27:37;13.38;;;8.57;;
12435;SDS011;6282;51.440;6.938;2023-06-22T07:30:05;11.68;;;9.27;;
12435;SDS011;6282;51.440;6.938;2023-06-22T07:32:33;12.20;;;9.10;;
12435;SDS011;6282;51.440;6.938;2023-06-22T07:34:59;10.73;;;9.63;;
12435;SDS011;6282;51.440;6.938;2023-06-22T07:37:27;10.75;;;8.68;;
12435;SDS011;6282;51.440;6.938;2023-06-22T07:39:54;10.65;;;8.98;;
12435;SDS011;6282;51.440;6.938;2023-06-22T07:42:23;11.32;;;8.90;;
12435;SDS011;6282;51.440;6.938;2023-06-22T07:44:52;9.85;;;8.85;;
12435;SDS011;6282;51.440;6.938;2023-06-22T07:47:20;11.68;;;9.27;;
12435;SDS011;6282;51.440;6.938;2023-06-22T07:49:50;9.98;;;8.63;;
12435;SDS011;6282;51.440;6.938;2023-06-22T07:52:17;10.73;;;8.82;;
12435;SDS011;6282;51.440;6.938;2023-06-22T07:54:43;9.73;;;8.20;;
12435;SDS011;6282;51.440;6.938;2023-06-22T07:57:10;10.48;;;8.73;;
12435;SDS011;6282;51.440;6.938;2023-06-22T07:59:37;11.38;;;8.07;;
12435;SDS011;6282;51.440;6.938;2023-06-22T08:02:05;9.32;;;7.35;;
12435;SDS011;6282;51.440;6.938;2023-06-22T08:04:33;10.38;;;8.60;;
12435;SDS011;6282;51.440;6.938;2023-06-22T08:07:00;11.70;;;9.48;;
12435;SDS011;6282;51.440;6.938;2023-06-22T08:09:29;11.07;;;8.85;;
12435;SDS011;6282;51.440;6.938;2023-06-22T08:11:57;11.00;;;8.55;;
12435;SDS011;6282;51.440;6.938;2023-06-22T08:14:25;10.35;;;8.95;;
12435;SDS011;6282;51.440;6.938;2023-06-22T08:16:52;9.40;;;8.45;;
12435;SDS011;6282;51.440;6.938;2023-06-22T08:19:20;10.48;;;8.60;;
12435;SDS011;6282;51.440;6.938;2023-06-22T08:21:47;11.00;;;9.90;;
12435;SDS011;6282;51.440;6.938;2023-06-22T08:24:14;9.90;;;8.82;;
12435;SDS011;6282;51.440;6.938;2023-06-22T08:26:41;13.27;;;9.85;;
12435;SDS011;6282;51.440;6.938;2023-06-22T08:29:07;11.30;;;9.80;;
12435;SDS011;6282;51.440;6.938;2023-06-22T08:31:35;11.60;;;9.10;;
12435;SDS011;6282;51.440;6.938;2023-06-22T08:34:03;12.27;;;9.43;;
12435;SDS011;6282;51.440;6.938;2023-06-22T08:36:31;13.50;;;9.32;;
12435;SDS011;6282;51.440;6.938;2023-06-22T08:38:59;11.43;;;9.25;;
12435;SDS011;6282;51.440;6.938;2023-06-22T08:41:28;10.90;;;8.98;;
12435;SDS011;6282;51.440;6.938;2023-06-22T08:43:56;13.88;;;9.57;;
12435;SDS011;6282;51.440;6.938;2023-06-22T08:46:22;12.07;;;8.98;;
12435;SDS011;6282;51.440;6.938;2023-06-22T08:48:55;13.23;;;9.82;;
12435;SDS011;6282;51.440;6.938;2023-06-22T08:51:22;11.88;;;9.05;;
12435;SDS011;6282;51.440;6.938;2023-06-22T08:53:51;10.63;;;8.95;;
12435;SDS011;6282;51.440;6.938;2023-06-22T08:56:19;10.25;;;8.90;;
12435;SDS011;6282;51.440;6.938;2023-06-22T08:58:45;11.52;;;8.50;;
12435;SDS011;6282;51.440;6.938;2023-06-22T09:01:12;11.82;;;9.80;;
12435;SDS011;6282;51.440;6.938;2023-06-22T09:03:40;11.38;;;9.10;;
12435;SDS011;6282;51.440;6.938;2023-06-22T09:06:07;9.88;;;8.70;;
12435;SDS011;6282;51.440;6.938;2023-06-22T09:08:34;10.27;;;9.07;;
12435;SDS011;6282;51.440;6.938;2023-06-22T09:11:02;9.90;;;8.07;;
12435;SDS011;6282;51.440;6.938;2023-06-22T09:13:30;11.27;;;8.35;;
12435;SDS011;6282;51.440;6.938;2023-06-22T09:15:57;9.00;;;8.10;;
12435;SDS011;6282;51.440;6.938;2023-06-22T09:18:24;11.48;;;8.40;;
12435;SDS011;6282;51.440;6.938;2023-06-22T09:20:51;9.15;;;8.20;;
12435;SDS011;6282;51.440;6.938;2023-06-22T09:23:18;9.77;;;8.32;;
12435;SDS011;6282;51.440;6.938;2023-06-22T09:25:45;10.13;;;8.25;;
12435;SDS011;6282;51.440;6.938;2023-06-22T09:28:14;10.40;;;7.85;;
12435;SDS011;6282;51.440;6.938;2023-06-22T09:30:42;10.18;;;7.85;;
12435;SDS011;6282;51.440;6.938;2023-06-22T09:33:09;10.40;;;7.50;;
12435;SDS011;6282;51.440;6.938;2023-06-22T09:35:36;10.60;;;8.43;;
12435;SDS011;6282;51.440;6.938;2023-06-22T09:38:03;8.93;;;7.70;;
12435;SDS011;6282;51.440;6.938;2023-06-22T09:40:30;9.23;;;6.93;;
12435;SDS011;6282;51.440;6.938;2023-06-22T09:43:01;9.55;;;7.25;;
12435;SDS011;6282;51.440;6.938;2023-06-22T09:45:29;7.22;;;6.53;;
12435;SDS011;6282;51.440;6.938;2023-06-22T09:47:56;9.07;;;7.28;;
12435;SDS011;6282;51.440;6.938;2023-06-22T09:50:23;7.85;;;7.05;;
12435;SDS011;6282;51.440;6.938;2023-06-22T09:52:50;8.90;;;7.00;;
12435;SDS011;6282;51.440;6.938;2023-06-22T09:55:19;8.85;;;7.47;;
12435;SDS011;6282;51.440;6.938;2023-06-22T09:57:46;8.68;;;7.78;;
12435;SDS011;6282;51.440;6.938;2023-06-22T10:00:14;7.80;;;6.80;;
12435;SDS011;6282;51.440;6.938;2023-06-22T10:02:46;9.48;;;6.75;;
12435;SDS011;6282;51.440;6.938;2023-06-22T10:05:13;11.13;;;7.93;;
12435;SDS011;6282;51.440;6.938;2023-06-22T10:07:40;9.48;;;7.15;;
12435;SDS011;6282;51.440;6.938;2023-06-22T10:10:09;9.57;;;7.50;;
12435;SDS011;6282;51.440;6.938;2023-06-22T10:12:40;8.82;;;7.28;;
12435;SDS011;6282;51.440;6.938;2023-06-22T10:15:09;8.30;;;6.30;;
12435;SDS011;6282;51.440;6.938;2023-06-22T10:17:36;8.85;;;7.35;;
12435;SDS011;6282;51.440;6.938;2023-06-22T10:20:05;9.88;;;7.25;;
12435;SDS011;6282;51.440;6.938;2023-06-22T10:22:37;8.07;;;6.88;;
12435;SDS011;6282;51.440;6.938;2023-06-22T10:25:04;10.68;;;7.93;;
12435;SDS011;6282;51.440;6.938;2023-06-22T10:27:32;8.57;;;6.88;;
12435;SDS011;6282;51.440;6.938;2023-06-22T10:29:59;8.55;;;7.78;;
12435;SDS011;6282;51.440;6.938;2023-06-22T10:32:27;8.57;;;7.40;;
12435;SDS011;6282;51.440;6.938;2023-06-22T10:34:54;9.13;;;7.15;;
12435;SDS011;6282;51.440;6.938;2023-06-22T10:37:22;9.02;;;7.97;;
12435;SDS011;6282;51.440;6.938;2023-06-22T10:39:49;8.05;;;7.15;;
12435;SDS011;6282;51.440;6.938;2023-06-22T10:42:16;9.05;;;7.35;;
12435;SDS011;6282;51.440;6.938;2023-06-22T10:44:43;8.55;;;6.47;;
12435;SDS011;6282;51.440;6.938;2023-06-22T10:47:10;7.72;;;6.55;;
12435;SDS011;6282;51.440;6.938;2023-06-22T10:49:38;7.65;;;6.40;;
12435;SDS011;6282;51.440;6.938;2023-06-22T10:52:05;7.50;;;6.68;;
12435;SDS011;6282;51.440;6.938;2023-06-22T10:54:34;9.13;;;7.15;;
12435;SDS011;6282;51.440;6.938;2023-06-22T10:57:02;8.13;;;7.35;;
12435;SDS011;6282;51.440;6.938;2023-06-22T10:59:29;7.53;;;6.82;;
12435;SDS011;6282;51.440;6.938;2023-06-22T11:01:56;6.60;;;5.90;;
12435;SDS011;6282;51.440;6.938;2023-06-22T11:04:23;9.02;;;6.60;;
12435;SDS011;6282;51.440;6.938;2023-06-22T11:06:50;12.30;;;7.30;;
12435;SDS011;6282;51.440;6.938;2023-06-22T11:09:17;8.10;;;7.15;;
12435;SDS011;6282;51.440;6.938;2023-06-22T11:11:47;7.95;;;7.18;;
12435;SDS011;6282;51.440;6.938;2023-06-22T11:14:15;9.25;;;7.45;;
12435;SDS011;6282;51.440;6.938;2023-06-22T11:16:42;11.95;;;9.15;;
12435;SDS011;6282;51.440;6.938;2023-06-22T11:19:11;10.35;;;8.13;;
12435;SDS011;6282;51.440;6.938;2023-06-22T11:21:39;11.40;;;9.82;;
12435;SDS011;6282;51.440;6.938;2023-06-22T11:24:06;10.10;;;8.93;;
12435;SDS011;6282;51.440;6.938;2023-06-22T11:26:33;11.15;;;9.05;;
12435;SDS011;6282;51.440;6.938;2023-06-22T11:29:01;16.65;;;9.75;;
12435;SDS011;6282;51.440;6.938;2023-06-22T11:31:30;11.98;;;8.85;;
12435;SDS011;6282;51.440;6.938;2023-06-22T11:33:58;11.93;;;9.70;;
12435;SDS011;6282;51.440;6.938;2023-06-22T11:36:25;11.68;;;10.48;;
12435;SDS011;6282;51.440;6.938;2023-06-22T11:38:52;11.95;;;10.25;;
12435;SDS011;6282;51.440;6.938;2023-06-22T11:41:19;16.48;;;11.25;;
12435;SDS011;6282;51.440;6.938;2023-06-22T11:43:46;12.70;;;10.48;;
12435;SDS011;6282;51.440;6.938;2023-06-22T11:46:14;14.63;;;11.77;;
12435;SDS011;6282;51.440;6.938;2023-06-22T11:48:41;16.80;;;12.07;;
12435;SDS011;6282;51.440;6.938;2023-06-22T11:51:08;14.00;;;10.93;;
12435;SDS011;6282;51.440;6.938;2023-06-22T11:53:35;15.60;;;12.07;;
12435;SDS011;6282;51.440;6.938;2023-06-22T11:56:03;18.98;;;14.10;;
12435;SDS011;6282;51.440;6.938;2023-06-22T11:58:30;17.88;;;13.43;;
12435;SDS011;6282;51.440;6.938;2023-06-22T12:00:57;20.13;;;14.52;;
12435;SDS011;6282;51.440;6.938;2023-06-22T12:03:25;18.45;;;13.40;;
12435;SDS011;6282;51.440;6.938;2023-06-22T12:05:52;17.58;;;13.82;;
12435;SDS011;6282;51.440;6.938;2023-06-22T12:08:19;19.27;;;15.27;;
12435;SDS011;6282;51.440;6.938;2023-06-22T12:10:47;19.98;;;14.77;;
12435;SDS011;6282;51.440;6.938;2023-06-22T12:13:15;18.73;;;14.88;;
12435;SDS011;6282;51.440;6.938;2023-06-22T12:15:42;18.85;;;14.95;;
12435;SDS011;6282;51.440;6.938;2023-06-22T12:18:09;24.27;;;15.73;;
12435;SDS011;6282;51.440;6.938;2023-06-22T12:20:38;23.20;;;16.85;;
12435;SDS011;6282;51.440;6.938;2023-06-22T12:23:05;20.08;;;16.40;;
12435;SDS011;6282;51.440;6.938;2023-06-22T12:25:32;23.23;;;16.63;;
12435;SDS011;6282;51.440;6.938;2023-06-22T12:27:59;23.38;;;17.33;;
12435;SDS011;6282;51.440;6.938;2023-06-22T12:30:25;21.02;;;17.50;;
12435;SDS011;6282;51.440;6.938;2023-06-22T12:32:52;21.13;;;16.55;;
12435;SDS011;6282;51.440;6.938;2023-06-22T12:35:19;22.75;;;17.67;;
12435;SDS011;6282;51.440;6.938;2023-06-22T12:37:48;25.35;;;18.35;;
12435;SDS011;6282;51.440;6.938;2023-06-22T12:40:15;23.60;;;18.40;;
12435;SDS011;6282;51.440;6.938;2023-06-22T12:42:42;22.13;;;18.52;;
12435;SDS011;6282;51.440;6.938;2023-06-22T12:45:09;23.52;;;18.88;;
12435;SDS011;6282;51.440;6.938;2023-06-22T12:47:37;21.80;;;18.23;;
12435;SDS011;6282;51.440;6.938;2023-06-22T12:50:04;25.55;;;19.27;;
12435;SDS011;6282;51.440;6.938;2023-06-22T12:52:32;23.23;;;18.23;;
12435;SDS011;6282;51.440;6.938;2023-06-22T12:55:00;29.27;;;20.17;;
12435;SDS011;6282;51.440;6.938;2023-06-22T12:57:27;27.30;;;19.85;;
12435;SDS011;6282;51.440;6.938;2023-06-22T12:59:54;25.45;;;18.70;;
12435;SDS011;6282;51.440;6.938;2023-06-22T13:02:20;25.90;;;17.70;;
12435;SDS011;6282;51.440;6.938;2023-06-22T13:04:47;27.27;;;19.85;;
12435;SDS011;6282;51.440;6.938;2023-06-22T13:07:14;24.85;;;19.02;;
12435;SDS011;6282;51.440;6.938;2023-06-22T13:09:41;27.75;;;20.45;;
12435;SDS011;6282;51.440;6.938;2023-06-22T13:12:09;27.27;;;21.10;;
12435;SDS011;6282;51.440;6.938;2023-06-22T13:14:36;27.08;;;20.25;;
12435;SDS011;6282;51.440;6.938;2023-06-22T13:17:03;26.00;;;19.98;;
12435;SDS011;6282;51.440;6.938;2023-06-22T13:19:30;27.55;;;21.30;;
12435;SDS011;6282;51.440;6.938;2023-06-22T13:21:57;25.33;;;19.83;;
12435;SDS011;6282;51.440;6.938;2023-06-22T13:24:27;26.73;;;20.45;;
12435;SDS011;6282;51.440;6.938;2023-06-22T13:26:54;27.60;;;20.85;;
12435;SDS011;6282;51.440;6.938;2023-06-22T13:29:23;24.70;;;18.92;;
12435;SDS011;6282;51.440;6.938;2023-06-22T13:31:50;27.48;;;19.73;;
12435;SDS011;6282;51.440;6.938;2023-06-22T13:34:17;24.00;;;19.05;;
12435;SDS011;6282;51.440;6.938;2023-06-22T13:36:43;25.08;;;19.40;;
12435;SDS011;6282;51.440;6.938;2023-06-22T13:39:11;25.27;;;19.23;;
12435;SDS011;6282;51.440;6.938;2023-06-22T13:41:38;23.35;;;17.90;;
12435;SDS011;6282;51.440;6.938;2023-06-22T13:44:05;25.60;;;20.35;;
12435;SDS011;6282;51.440;6.938;2023-06-22T13:46:33;25.25;;;20.10;;
12435;SDS011;6282;51.440;6.938;2023-06-22T13:49:00;24.17;;;19.05;;
12435;SDS011;6282;51.440;6.938;2023-06-22T13:51:27;27.65;;;18.90;;
12435;SDS011;6282;51.440;6.938;2023-06-22T13:53:54;25.08;;;19.15;;
12435;SDS011;6282;51.440;6.938;2023-06-22T13:56:20;21.17;;;18.38;;
12435;SDS011;6282;51.440;6.938;2023-06-22T13:58:47;21.77;;;17.65;;
12435;SDS011;6282;51.440;6.938;2023-06-22T14:01:14;23.30;;;18.67;;
12435;SDS011;6282;51.440;6.938;2023-06-22T14:03:42;21.48;;;18.02;;
12435;SDS011;6282;51.440;6.938;2023-06-22T14:06:10;20.20;;;17.95;;
12435;SDS011;6282;51.440;6.938;2023-06-22T14:08:37;25.25;;;16.80;;
12435;SDS011;6282;51.440;6.938;2023-06-22T14:11:04;20.02;;;17.13;;
12435;SDS011;6282;51.440;6.938;2023-06-22T14:13:31;21.52;;;17.10;;
12435;SDS011;6282;51.440;6.938;2023-06-22T14:15:58;22.00;;;16.83;;
12435;SDS011;6282;51.440;6.938;2023-06-22T14:18:25;20.10;;;16.83;;
12435;SDS011;6282;51.440;6.938;2023-06-22T14:20:53;20.48;;;17.33;;
12435;SDS011;6282;51.440;6.938;2023-06-22T14:23:20;23.17;;;17.13;;
12435;SDS011;6282;51.440;6.938;2023-06-22T14:25:47;19.35;;;15.60;;
12435;SDS011;6282;51.440;6.938;2023-06-22T14:28:14;19.45;;;17.25;;
12435;SDS011;6282;51.440;6.938;2023-06-22T14:30:41;21.73;;;16.35;;
12435;SDS011;6282;51.440;6.938;2023-06-22T14:33:08;20.33;;;16.55;;
12435;SDS011;6282;51.440;6.938;2023-06-22T14:35:35;18.17;;;16.20;;
12435;SDS011;6282;51.440;6.938;2023-06-22T14:38:03;22.70;;;16.75;;
12435;SDS011;6282;51.440;6.938;2023-06-22T14:40:30;23.02;;;17.25;;
12435;SDS011;6282;51.440;6.938;2023-06-22T14:42:57;19.33;;;15.18;;
12435;SDS011;6282;51.440;6.938;2023-06-22T14:45:24;17.85;;;15.27;;
12435;SDS011;6282;51.440;6.938;2023-06-22T14:47:50;19.58;;;14.85;;
12435;SDS011;6282;51.440;6.938;2023-06-22T14:50:17;17.35;;;14.55;;
12435;SDS011;6282;51.440;6.938;2023-06-22T14:52:44;19.88;;;14.90;;
12435;SDS011;6282;51.440;6.938;2023-06-22T14:55:12;19.23;;;14.05;;
12435;SDS011;6282;51.440;6.938;2023-06-22T14:57:39;18.55;;;14.70;;
12435;SDS011;6282;51.440;6.938;2023-06-22T15:00:06;15.93;;;14.23;;